Ryan, Oklahoma
Current Conditions -  °F | °C
As of 3:55 AM on Friday 28 Nov 2014 (Local Time) from K0F2 Reporting Station
Clear Clear  
Wind Chill: 36°   Ceiling: Unl
Heat Index: 40°   Visibility: 10mi
Dew Point: 29°   Wind: 5mph
Humidity: 66%   Direction: 140°SE
Pressure: 30.25"   Gusts: NA
Location:  34.02°N, 97.96°W
Report Text: K0F2 280955Z AUTO 14004KT 10SM CLR 04/M01 A3025 RMK AO2 T00431015
Loading
Personal Weather Stations






























Interactive Weather Map New forecast layout! Learn more

10-Day Weather Forecast

Advertisements
Track Severe Weather on mobile